sensor_id;sensor_type;location;lat;lon;timestamp;P1;durP1;ratioP1;P2;durP2;ratioP2
37409;SDS011;23275;48.914;12.566;2022-09-09T00:04:28;4.35;;;2.20;;
37409;SDS011;23275;48.914;12.566;2022-09-09T00:07:14;8.38;;;3.30;;
37409;SDS011;23275;48.914;12.566;2022-09-09T00:12:51;9.75;;;3.10;;
37409;SDS011;23275;48.914;12.566;2022-09-09T00:15:21;5.65;;;2.47;;
37409;SDS011;23275;48.914;12.566;2022-09-09T00:20:32;4.85;;;2.60;;
37409;SDS011;23275;48.914;12.566;2022-09-09T00:23:28;5.93;;;3.22;;
37409;SDS011;23275;48.914;12.566;2022-09-09T00:28:48;4.65;;;2.90;;
37409;SDS011;23275;48.914;12.566;2022-09-09T00:31:20;5.93;;;3.20;;
37409;SDS011;23275;48.914;12.566;2022-09-09T00:33:53;7.70;;;3.00;;
37409;SDS011;23275;48.914;12.566;2022-09-09T00:36:21;6.10;;;2.92;;
37409;SDS011;23275;48.914;12.566;2022-09-09T00:38:52;5.20;;;3.20;;
37409;SDS011;23275;48.914;12.566;2022-09-09T00:49:38;10.05;;;4.20;;
37409;SDS011;23275;48.914;12.566;2022-09-09T00:55:06;5.03;;;3.38;;
37409;SDS011;23275;48.914;12.566;2022-09-09T00:57:34;8.38;;;4.63;;
37409;SDS011;23275;48.914;12.566;2022-09-09T01:05:51;8.40;;;3.38;;
37409;SDS011;23275;48.914;12.566;2022-09-09T01:11:49;3.85;;;2.90;;
37409;SDS011;23275;48.914;12.566;2022-09-09T01:25:09;5.93;;;3.00;;
37409;SDS011;23275;48.914;12.566;2022-09-09T01:27:38;7.55;;;3.70;;
37409;SDS011;23275;48.914;12.566;2022-09-09T01:30:10;6.82;;;3.75;;
37409;SDS011;23275;48.914;12.566;2022-09-09T01:32:39;6.95;;;4.45;;
37409;SDS011;23275;48.914;12.566;2022-09-09T01:35:12;6.50;;;4.30;;
37409;SDS011;23275;48.914;12.566;2022-09-09T01:37:56;7.55;;;4.10;;
37409;SDS011;23275;48.914;12.566;2022-09-09T01:40:22;6.55;;;4.22;;
37409;SDS011;23275;48.914;12.566;2022-09-09T01:42:49;6.88;;;4.50;;
37409;SDS011;23275;48.914;12.566;2022-09-09T01:45:15;6.13;;;4.15;;
37409;SDS011;23275;48.914;12.566;2022-09-09T01:47:40;7.15;;;4.70;;
37409;SDS011;23275;48.914;12.566;2022-09-09T01:50:06;11.15;;;5.32;;
37409;SDS011;23275;48.914;12.566;2022-09-09T01:52:36;9.35;;;5.35;;
37409;SDS011;23275;48.914;12.566;2022-09-09T01:55:03;7.13;;;5.00;;
37409;SDS011;23275;48.914;12.566;2022-09-09T02:00:23;8.88;;;4.72;;
37409;SDS011;23275;48.914;12.566;2022-09-09T02:03:05;6.90;;;4.60;;
37409;SDS011;23275;48.914;12.566;2022-09-09T02:05:43;8.35;;;4.63;;
37409;SDS011;23275;48.914;12.566;2022-09-09T02:13:21;6.68;;;4.60;;
37409;SDS011;23275;48.914;12.566;2022-09-09T02:15:52;6.05;;;4.70;;
37409;SDS011;23275;48.914;12.566;2022-09-09T02:18:27;9.32;;;4.80;;
37409;SDS011;23275;48.914;12.566;2022-09-09T02:20:59;10.77;;;4.68;;
37409;SDS011;23275;48.914;12.566;2022-09-09T02:23:26;8.50;;;5.30;;
37409;SDS011;23275;48.914;12.566;2022-09-09T02:25:53;9.45;;;5.05;;
37409;SDS011;23275;48.914;12.566;2022-09-09T02:28:21;11.13;;;5.20;;
37409;SDS011;23275;48.914;12.566;2022-09-09T02:30:50;8.30;;;4.78;;
37409;SDS011;23275;48.914;12.566;2022-09-09T02:33:20;6.93;;;5.38;;
37409;SDS011;23275;48.914;12.566;2022-09-09T02:35:52;6.93;;;4.22;;
37409;SDS011;23275;48.914;12.566;2022-09-09T02:38:21;9.98;;;4.65;;
37409;SDS011;23275;48.914;12.566;2022-09-09T02:40:51;10.18;;;4.70;;
37409;SDS011;23275;48.914;12.566;2022-09-09T02:43:17;6.07;;;4.43;;
37409;SDS011;23275;48.914;12.566;2022-09-09T02:45:53;9.48;;;4.53;;
37409;SDS011;23275;48.914;12.566;2022-09-09T02:51:16;8.68;;;4.88;;
37409;SDS011;23275;48.914;12.566;2022-09-09T02:54:10;9.75;;;5.25;;
37409;SDS011;23275;48.914;12.566;2022-09-09T02:56:43;10.07;;;4.95;;
37409;SDS011;23275;48.914;12.566;2022-09-09T02:59:15;8.20;;;5.50;;
37409;SDS011;23275;48.914;12.566;2022-09-09T03:01:41;9.93;;;6.45;;
37409;SDS011;23275;48.914;12.566;2022-09-09T03:04:07;7.90;;;5.80;;
37409;SDS011;23275;48.914;12.566;2022-09-09T03:06:32;11.57;;;6.55;;
37409;SDS011;23275;48.914;12.566;2022-09-09T03:08:58;10.40;;;6.95;;
37409;SDS011;23275;48.914;12.566;2022-09-09T03:11:26;13.10;;;6.70;;
37409;SDS011;23275;48.914;12.566;2022-09-09T03:13:52;12.65;;;7.15;;
37409;SDS011;23275;48.914;12.566;2022-09-09T03:16:19;13.07;;;6.10;;
37409;SDS011;23275;48.914;12.566;2022-09-09T03:18:46;11.75;;;6.63;;
37409;SDS011;23275;48.914;12.566;2022-09-09T03:21:11;11.18;;;6.75;;
37409;SDS011;23275;48.914;12.566;2022-09-09T03:23:37;14.55;;;11.85;;
37409;SDS011;23275;48.914;12.566;2022-09-09T03:26:03;10.20;;;7.10;;
37409;SDS011;23275;48.914;12.566;2022-09-09T03:28:28;16.10;;;10.68;;
37409;SDS011;23275;48.914;12.566;2022-09-09T03:31:03;14.82;;;9.75;;
37409;SDS011;23275;48.914;12.566;2022-09-09T03:33:30;13.70;;;7.05;;
37409;SDS011;23275;48.914;12.566;2022-09-09T03:35:56;13.10;;;8.25;;
37409;SDS011;23275;48.914;12.566;2022-09-09T03:38:22;11.32;;;6.25;;
37409;SDS011;23275;48.914;12.566;2022-09-09T03:40:50;6.75;;;4.97;;
37409;SDS011;23275;48.914;12.566;2022-09-09T03:43:26;12.00;;;4.93;;
37409;SDS011;23275;48.914;12.566;2022-09-09T03:45:53;6.22;;;4.70;;
37409;SDS011;23275;48.914;12.566;2022-09-09T03:48:22;12.15;;;5.07;;
37409;SDS011;23275;48.914;12.566;2022-09-09T03:50:49;11.02;;;5.38;;
37409;SDS011;23275;48.914;12.566;2022-09-09T03:53:17;6.55;;;4.95;;
37409;SDS011;23275;48.914;12.566;2022-09-09T03:55:45;9.23;;;4.80;;
37409;SDS011;23275;48.914;12.566;2022-09-09T03:58:12;5.82;;;4.60;;
37409;SDS011;23275;48.914;12.566;2022-09-09T04:00:39;10.90;;;5.38;;
37409;SDS011;23275;48.914;12.566;2022-09-09T04:03:10;8.32;;;5.60;;
37409;SDS011;23275;48.914;12.566;2022-09-09T04:05:36;8.73;;;6.15;;
37409;SDS011;23275;48.914;12.566;2022-09-09T04:08:07;9.10;;;4.60;;
37409;SDS011;23275;48.914;12.566;2022-09-09T04:10:33;9.65;;;5.30;;
37409;SDS011;23275;48.914;12.566;2022-09-09T04:13:05;9.85;;;5.78;;
37409;SDS011;23275;48.914;12.566;2022-09-09T04:15:31;6.47;;;5.22;;
37409;SDS011;23275;48.914;12.566;2022-09-09T04:17:57;8.48;;;5.30;;
37409;SDS011;23275;48.914;12.566;2022-09-09T04:20:22;7.78;;;6.20;;
37409;SDS011;23275;48.914;12.566;2022-09-09T04:22:48;7.28;;;5.18;;
37409;SDS011;23275;48.914;12.566;2022-09-09T04:25:14;7.63;;;5.40;;
37409;SDS011;23275;48.914;12.566;2022-09-09T04:27:39;7.75;;;4.82;;
37409;SDS011;23275;48.914;12.566;2022-09-09T04:30:05;9.50;;;4.70;;
37409;SDS011;23275;48.914;12.566;2022-09-09T04:32:33;8.85;;;4.43;;
37409;SDS011;23275;48.914;12.566;2022-09-09T04:34:58;8.20;;;5.00;;
37409;SDS011;23275;48.914;12.566;2022-09-09T04:37:24;7.10;;;5.07;;
37409;SDS011;23275;48.914;12.566;2022-09-09T04:39:49;8.77;;;5.25;;
37409;SDS011;23275;48.914;12.566;2022-09-09T04:42:15;9.50;;;4.72;;
37409;SDS011;23275;48.914;12.566;2022-09-09T04:44:42;11.50;;;5.00;;
37409;SDS011;23275;48.914;12.566;2022-09-09T04:47:08;8.38;;;5.57;;
37409;SDS011;23275;48.914;12.566;2022-09-09T04:49:34;11.45;;;5.57;;
37409;SDS011;23275;48.914;12.566;2022-09-09T04:52:01;13.45;;;5.78;;
37409;SDS011;23275;48.914;12.566;2022-09-09T04:54:28;9.30;;;5.45;;
37409;SDS011;23275;48.914;12.566;2022-09-09T04:56:53;8.98;;;5.25;;
37409;SDS011;23275;48.914;12.566;2022-09-09T04:59:19;9.40;;;6.22;;
37409;SDS011;23275;48.914;12.566;2022-09-09T05:01:46;7.00;;;5.10;;
37409;SDS011;23275;48.914;12.566;2022-09-09T05:04:12;9.77;;;5.22;;
37409;SDS011;23275;48.914;12.566;2022-09-09T05:06:40;8.45;;;5.60;;
37409;SDS011;23275;48.914;12.566;2022-09-09T05:09:05;11.30;;;5.75;;
37409;SDS011;23275;48.914;12.566;2022-09-09T05:11:31;9.75;;;5.68;;
37409;SDS011;23275;48.914;12.566;2022-09-09T05:13:59;11.63;;;6.32;;
37409;SDS011;23275;48.914;12.566;2022-09-09T05:16:26;14.35;;;7.25;;
37409;SDS011;23275;48.914;12.566;2022-09-09T05:18:51;13.18;;;8.02;;
37409;SDS011;23275;48.914;12.566;2022-09-09T05:21:17;11.30;;;7.40;;
37409;SDS011;23275;48.914;12.566;2022-09-09T05:23:44;12.88;;;8.18;;
37409;SDS011;23275;48.914;12.566;2022-09-09T05:26:15;12.40;;;6.75;;
37409;SDS011;23275;48.914;12.566;2022-09-09T05:28:41;9.93;;;6.25;;
37409;SDS011;23275;48.914;12.566;2022-09-09T05:31:08;11.05;;;6.80;;
37409;SDS011;23275;48.914;12.566;2022-09-09T05:33:36;11.02;;;7.00;;
37409;SDS011;23275;48.914;12.566;2022-09-09T05:36:06;8.98;;;7.07;;
37409;SDS011;23275;48.914;12.566;2022-09-09T05:38:33;11.82;;;7.75;;
37409;SDS011;23275;48.914;12.566;2022-09-09T05:41:01;10.13;;;6.57;;
37409;SDS011;23275;48.914;12.566;2022-09-09T05:43:27;9.93;;;7.35;;
37409;SDS011;23275;48.914;12.566;2022-09-09T05:46:01;10.25;;;6.47;;
37409;SDS011;23275;48.914;12.566;2022-09-09T05:48:31;11.05;;;7.05;;
37409;SDS011;23275;48.914;12.566;2022-09-09T05:50:58;9.45;;;6.70;;
37409;SDS011;23275;48.914;12.566;2022-09-09T05:53:24;8.90;;;6.30;;
37409;SDS011;23275;48.914;12.566;2022-09-09T05:56:00;10.13;;;6.18;;
37409;SDS011;23275;48.914;12.566;2022-09-09T05:58:28;10.27;;;6.32;;
37409;SDS011;23275;48.914;12.566;2022-09-09T06:01:05;8.88;;;5.88;;
37409;SDS011;23275;48.914;12.566;2022-09-09T06:03:32;9.30;;;6.18;;
37409;SDS011;23275;48.914;12.566;2022-09-09T06:06:04;11.98;;;7.03;;
37409;SDS011;23275;48.914;12.566;2022-09-09T06:08:34;8.93;;;7.23;;
37409;SDS011;23275;48.914;12.566;2022-09-09T06:11:05;11.35;;;7.70;;
37409;SDS011;23275;48.914;12.566;2022-09-09T06:13:32;9.40;;;6.78;;
37409;SDS011;23275;48.914;12.566;2022-09-09T06:15:58;8.65;;;6.20;;
37409;SDS011;23275;48.914;12.566;2022-09-09T06:18:24;9.63;;;6.93;;
37409;SDS011;23275;48.914;12.566;2022-09-09T06:20:57;7.88;;;6.25;;
37409;SDS011;23275;48.914;12.566;2022-09-09T06:23:25;9.27;;;5.47;;
37409;SDS011;23275;48.914;12.566;2022-09-09T06:25:59;9.43;;;6.05;;
37409;SDS011;23275;48.914;12.566;2022-09-09T06:28:33;7.85;;;5.85;;
37409;SDS011;23275;48.914;12.566;2022-09-09T06:31:00;13.48;;;6.07;;
37409;SDS011;23275;48.914;12.566;2022-09-09T06:33:30;10.35;;;5.72;;
37409;SDS011;23275;48.914;12.566;2022-09-09T06:35:59;6.72;;;5.18;;
37409;SDS011;23275;48.914;12.566;2022-09-09T06:38:25;16.23;;;8.23;;
37409;SDS011;23275;48.914;12.566;2022-09-09T06:40:54;9.82;;;5.03;;
37409;SDS011;23275;48.914;12.566;2022-09-09T06:43:21;6.88;;;4.72;;
37409;SDS011;23275;48.914;12.566;2022-09-09T06:45:58;7.18;;;4.13;;
37409;SDS011;23275;48.914;12.566;2022-09-09T06:48:26;7.80;;;4.60;;
37409;SDS011;23275;48.914;12.566;2022-09-09T06:51:06;6.97;;;4.55;;
37409;SDS011;23275;48.914;12.566;2022-09-09T06:53:39;6.45;;;4.57;;
37409;SDS011;23275;48.914;12.566;2022-09-09T06:58:35;7.35;;;4.30;;
37409;SDS011;23275;48.914;12.566;2022-09-09T07:01:05;6.60;;;3.97;;
37409;SDS011;23275;48.914;12.566;2022-09-09T07:03:32;5.50;;;3.70;;
37409;SDS011;23275;48.914;12.566;2022-09-09T07:05:59;8.02;;;4.60;;
37409;SDS011;23275;48.914;12.566;2022-09-09T07:08:25;5.68;;;3.90;;
37409;SDS011;23275;48.914;12.566;2022-09-09T07:10:51;5.30;;;4.00;;
37409;SDS011;23275;48.914;12.566;2022-09-09T07:13:24;5.83;;;3.53;;
37409;SDS011;23275;48.914;12.566;2022-09-09T07:15:50;7.35;;;3.65;;
37409;SDS011;23275;48.914;12.566;2022-09-09T07:18:16;5.35;;;3.42;;
37409;SDS011;23275;48.914;12.566;2022-09-09T07:20:42;7.97;;;3.22;;
37409;SDS011;23275;48.914;12.566;2022-09-09T07:23:08;6.35;;;3.85;;
37409;SDS011;23275;48.914;12.566;2022-09-09T07:25:34;7.72;;;3.58;;
37409;SDS011;23275;48.914;12.566;2022-09-09T07:27:59;5.65;;;3.50;;
37409;SDS011;23275;48.914;12.566;2022-09-09T07:30:25;5.88;;;3.70;;
37409;SDS011;23275;48.914;12.566;2022-09-09T07:32:51;9.07;;;4.18;;
37409;SDS011;23275;48.914;12.566;2022-09-09T07:35:17;6.60;;;3.78;;
37409;SDS011;23275;48.914;12.566;2022-09-09T07:37:42;7.63;;;3.88;;
37409;SDS011;23275;48.914;12.566;2022-09-09T07:40:10;6.72;;;3.88;;
37409;SDS011;23275;48.914;12.566;2022-09-09T07:42:35;6.47;;;4.40;;
37409;SDS011;23275;48.914;12.566;2022-09-09T07:45:02;5.10;;;3.88;;
37409;SDS011;23275;48.914;12.566;2022-09-09T07:47:28;6.43;;;3.88;;
37409;SDS011;23275;48.914;12.566;2022-09-09T07:49:54;7.57;;;5.22;;
37409;SDS011;23275;48.914;12.566;2022-09-09T07:52:20;7.00;;;4.13;;
37409;SDS011;23275;48.914;12.566;2022-09-09T07:54:46;5.22;;;3.10;;
37409;SDS011;23275;48.914;12.566;2022-09-09T07:57:12;5.97;;;3.50;;
37409;SDS011;23275;48.914;12.566;2022-09-09T07:59:37;6.15;;;3.05;;
37409;SDS011;23275;48.914;12.566;2022-09-09T08:02:03;4.65;;;3.47;;
37409;SDS011;23275;48.914;12.566;2022-09-09T08:04:29;7.18;;;3.30;;
37409;SDS011;23275;48.914;12.566;2022-09-09T08:06:56;7.40;;;3.78;;
37409;SDS011;23275;48.914;12.566;2022-09-09T08:09:23;4.65;;;3.22;;
37409;SDS011;23275;48.914;12.566;2022-09-09T08:11:51;4.78;;;3.38;;
37409;SDS011;23275;48.914;12.566;2022-09-09T08:14:17;4.93;;;3.30;;
37409;SDS011;23275;48.914;12.566;2022-09-09T08:16:44;5.05;;;2.90;;
37409;SDS011;23275;48.914;12.566;2022-09-09T08:19:11;7.22;;;2.60;;
37409;SDS011;23275;48.914;12.566;2022-09-09T08:21:38;4.50;;;2.50;;
37409;SDS011;23275;48.914;12.566;2022-09-09T08:24:05;5.10;;;3.28;;
37409;SDS011;23275;48.914;12.566;2022-09-09T08:26:32;4.50;;;2.58;;
37409;SDS011;23275;48.914;12.566;2022-09-09T08:29:00;7.93;;;3.28;;
37409;SDS011;23275;48.914;12.566;2022-09-09T08:31:37;4.10;;;2.75;;
37409;SDS011;23275;48.914;12.566;2022-09-09T08:34:04;5.82;;;3.20;;
37409;SDS011;23275;48.914;12.566;2022-09-09T08:36:32;7.18;;;3.63;;
37409;SDS011;23275;48.914;12.566;2022-09-09T08:38:59;4.75;;;3.08;;
37409;SDS011;23275;48.914;12.566;2022-09-09T08:44:07;6.13;;;3.40;;
37409;SDS011;23275;48.914;12.566;2022-09-09T08:52:55;5.65;;;3.50;;
37409;SDS011;23275;48.914;12.566;2022-09-09T08:58:19;4.82;;;3.08;;
37409;SDS011;23275;48.914;12.566;2022-09-09T09:06:35;5.28;;;3.45;;
37409;SDS011;23275;48.914;12.566;2022-09-09T09:12:27;5.97;;;3.17;;
37409;SDS011;23275;48.914;12.566;2022-09-09T09:15:11;10.33;;;3.73;;
37409;SDS011;23275;48.914;12.566;2022-09-09T09:17:43;5.50;;;3.80;;
37409;SDS011;23275;48.914;12.566;2022-09-09T09:20:13;5.90;;;3.40;;
37409;SDS011;23275;48.914;12.566;2022-09-09T09:22:46;7.35;;;3.55;;
37409;SDS011;23275;48.914;12.566;2022-09-09T09:28:18;8.85;;;4.38;;
37409;SDS011;23275;48.914;12.566;2022-09-09T09:31:12;6.65;;;4.18;;
37409;SDS011;23275;48.914;12.566;2022-09-09T09:36:18;7.38;;;4.60;;
37409;SDS011;23275;48.914;12.566;2022-09-09T09:38:58;8.10;;;4.72;;
37409;SDS011;23275;48.914;12.566;2022-09-09T09:41:40;13.27;;;4.85;;
37409;SDS011;23275;48.914;12.566;2022-09-09T09:44:24;6.78;;;4.32;;
37409;SDS011;23275;48.914;12.566;2022-09-09T09:47:06;7.50;;;4.50;;
37409;SDS011;23275;48.914;12.566;2022-09-09T09:49:33;10.10;;;4.53;;
37409;SDS011;23275;48.914;12.566;2022-09-09T09:52:05;7.40;;;4.75;;
37409;SDS011;23275;48.914;12.566;2022-09-09T09:54:39;8.90;;;5.10;;
37409;SDS011;23275;48.914;12.566;2022-09-09T09:57:16;7.40;;;5.60;;
37409;SDS011;23275;48.914;12.566;2022-09-09T09:59:42;7.63;;;5.53;;
37409;SDS011;23275;48.914;12.566;2022-09-09T10:02:19;11.35;;;5.55;;
37409;SDS011;23275;48.914;12.566;2022-09-09T10:05:00;8.27;;;5.90;;
37409;SDS011;23275;48.914;12.566;2022-09-09T10:07:30;9.27;;;6.43;;
37409;SDS011;23275;48.914;12.566;2022-09-09T10:09:57;8.43;;;6.50;;
37409;SDS011;23275;48.914;12.566;2022-09-09T10:21:17;8.13;;;5.90;;
37409;SDS011;23275;48.914;12.566;2022-09-09T10:23:56;14.43;;;6.90;;
37409;SDS011;23275;48.914;12.566;2022-09-09T10:38:10;8.90;;;5.47;;
37409;SDS011;23275;48.914;12.566;2022-09-09T10:40:48;7.72;;;5.35;;
37409;SDS011;23275;48.914;12.566;2022-09-09T10:55:14;7.80;;;4.00;;
37409;SDS011;23275;48.914;12.566;2022-09-09T11:02:42;7.57;;;4.63;;
37409;SDS011;23275;48.914;12.566;2022-09-09T11:08:06;7.32;;;4.93;;
37409;SDS011;23275;48.914;12.566;2022-09-09T11:13:19;7.55;;;4.60;;
37409;SDS011;23275;48.914;12.566;2022-09-09T11:15:53;12.15;;;5.47;;
37409;SDS011;23275;48.914;12.566;2022-09-09T11:18:24;7.28;;;4.90;;
37409;SDS011;23275;48.914;12.566;2022-09-09T11:20:52;9.52;;;4.80;;
37409;SDS011;23275;48.914;12.566;2022-09-09T11:23:24;10.25;;;5.10;;
37409;SDS011;23275;48.914;12.566;2022-09-09T11:26:16;7.25;;;5.07;;
37409;SDS011;23275;48.914;12.566;2022-09-09T11:29:01;7.60;;;4.70;;
37409;SDS011;23275;48.914;12.566;2022-09-09T11:35:03;9.50;;;5.65;;
37409;SDS011;23275;48.914;12.566;2022-09-09T11:40:21;11.52;;;6.50;;
37409;SDS011;23275;48.914;12.566;2022-09-09T11:42:49;13.00;;;7.93;;
37409;SDS011;23275;48.914;12.566;2022-09-09T11:45:26;5.85;;;4.55;;
37409;SDS011;23275;48.914;12.566;2022-09-09T11:47:58;5.45;;;3.60;;
37409;SDS011;23275;48.914;12.566;2022-09-09T11:52:50;6.38;;;3.90;;
37409;SDS011;23275;48.914;12.566;2022-09-09T11:55:28;7.65;;;3.65;;
37409;SDS011;23275;48.914;12.566;2022-09-09T11:58:01;6.50;;;4.03;;
37409;SDS011;23275;48.914;12.566;2022-09-09T12:00:41;5.68;;;3.20;;
37409;SDS011;23275;48.914;12.566;2022-09-09T12:06:27;8.52;;;3.85;;
37409;SDS011;23275;48.914;12.566;2022-09-09T12:09:07;5.93;;;3.70;;
37409;SDS011;23275;48.914;12.566;2022-09-09T12:11:41;6.68;;;3.00;;
37409;SDS011;23275;48.914;12.566;2022-09-09T12:14:18;4.20;;;3.05;;
37409;SDS011;23275;48.914;12.566;2022-09-09T12:16:46;4.88;;;2.92;;
37409;SDS011;23275;48.914;12.566;2022-09-09T12:21:48;3.15;;;1.98;;
37409;SDS011;23275;48.914;12.566;2022-09-09T12:24:40;6.40;;;2.40;;
37409;SDS011;23275;48.914;12.566;2022-09-09T12:27:16;5.30;;;2.25;;
37409;SDS011;23275;48.914;12.566;2022-09-09T12:30:01;6.05;;;2.20;;
37409;SDS011;23275;48.914;12.566;2022-09-09T12:32:29;3.90;;;2.10;;
37409;SDS011;23275;48.914;12.566;2022-09-09T12:34:56;4.10;;;1.70;;
37409;SDS011;23275;48.914;12.566;2022-09-09T12:42:46;4.45;;;1.33;;
37409;SDS011;23275;48.914;12.566;2022-09-09T12:45:16;3.38;;;1.10;;
37409;SDS011;23275;48.914;12.566;2022-09-09T12:50:15;3.67;;;1.20;;
37409;SDS011;23275;48.914;12.566;2022-09-09T12:52:56;2.97;;;0.80;;
37409;SDS011;23275;48.914;12.566;2022-09-09T12:55:28;4.80;;;1.20;;
37409;SDS011;23275;48.914;12.566;2022-09-09T12:58:00;2.38;;;0.93;;
37409;SDS011;23275;48.914;12.566;2022-09-09T13:00:30;2.40;;;0.93;;
37409;SDS011;23275;48.914;12.566;2022-09-09T13:02:57;3.28;;;1.00;;
37409;SDS011;23275;48.914;12.566;2022-09-09T13:05:27;4.57;;;0.77;;
37409;SDS011;23275;48.914;12.566;2022-09-09T13:08:02;2.75;;;0.80;;
37409;SDS011;23275;48.914;12.566;2022-09-09T13:10:46;2.58;;;0.90;;
37409;SDS011;23275;48.914;12.566;2022-09-09T13:13:19;2.97;;;0.70;;
37409;SDS011;23275;48.914;12.566;2022-09-09T13:15:48;2.78;;;0.47;;
37409;SDS011;23275;48.914;12.566;2022-09-09T13:18:19;1.73;;;0.60;;
37409;SDS011;23275;48.914;12.566;2022-09-09T13:20:48;1.80;;;0.70;;
37409;SDS011;23275;48.914;12.566;2022-09-09T13:23:15;3.10;;;0.70;;
37409;SDS011;23275;48.914;12.566;2022-09-09T13:25:42;5.80;;;0.70;;
37409;SDS011;23275;48.914;12.566;2022-09-09T13:28:20;1.75;;;0.80;;
37409;SDS011;23275;48.914;12.566;2022-09-09T13:31:01;1.98;;;0.75;;
37409;SDS011;23275;48.914;12.566;2022-09-09T13:35:56;5.38;;;0.88;;
37409;SDS011;23275;48.914;12.566;2022-09-09T13:38:35;3.67;;;1.30;;
37409;SDS011;23275;48.914;12.566;2022-09-09T13:41:19;1.70;;;0.80;;
37409;SDS011;23275;48.914;12.566;2022-09-09T13:43:58;3.13;;;0.75;;
37409;SDS011;23275;48.914;12.566;2022-09-09T13:48:57;3.80;;;1.08;;
37409;SDS011;23275;48.914;12.566;2022-09-09T13:51:34;2.13;;;0.60;;
37409;SDS011;23275;48.914;12.566;2022-09-09T13:54:03;2.83;;;0.80;;
37409;SDS011;23275;48.914;12.566;2022-09-09T13:56:34;4.60;;;0.65;;
37409;SDS011;23275;48.914;12.566;2022-09-09T13:59:00;1.40;;;0.60;;
37409;SDS011;23275;48.914;12.566;2022-09-09T14:01:26;7.43;;;0.93;;
37409;SDS011;23275;48.914;12.566;2022-09-09T14:03:52;7.07;;;0.73;;
37409;SDS011;23275;48.914;12.566;2022-09-09T14:06:18;1.70;;;0.52;;
37409;SDS011;23275;48.914;12.566;2022-09-09T14:08:44;3.08;;;0.55;;
37409;SDS011;23275;48.914;12.566;2022-09-09T14:11:11;12.68;;;1.08;;
37409;SDS011;23275;48.914;12.566;2022-09-09T14:13:37;5.10;;;0.40;;
37409;SDS011;23275;48.914;12.566;2022-09-09T14:16:03;3.92;;;0.77;;
37409;SDS011;23275;48.914;12.566;2022-09-09T14:18:29;8.02;;;0.50;;
37409;SDS011;23275;48.914;12.566;2022-09-09T14:20:55;2.15;;;0.70;;
37409;SDS011;23275;48.914;12.566;2022-09-09T14:23:22;1.98;;;0.50;;
37409;SDS011;23275;48.914;12.566;2022-09-09T14:25:48;2.60;;;0.80;;
37409;SDS011;23275;48.914;12.566;2022-09-09T14:28:14;4.28;;;0.50;;
37409;SDS011;23275;48.914;12.566;2022-09-09T14:30:40;1.23;;;0.40;;
37409;SDS011;23275;48.914;12.566;2022-09-09T14:33:10;3.35;;;0.52;;
37409;SDS011;23275;48.914;12.566;2022-09-09T14:35:38;1.20;;;0.40;;
37409;SDS011;23275;48.914;12.566;2022-09-09T14:38:04;2.40;;;0.70;;
37409;SDS011;23275;48.914;12.566;2022-09-09T14:40:30;5.05;;;0.63;;
37409;SDS011;23275;48.914;12.566;2022-09-09T14:42:56;2.33;;;0.43;;
37409;SDS011;23275;48.914;12.566;2022-09-09T14:45:22;5.50;;;1.92;;
37409;SDS011;23275;48.914;12.566;2022-09-09T14:47:49;3.85;;;1.33;;
37409;SDS011;23275;48.914;12.566;2022-09-09T14:50:15;4.43;;;0.70;;
37409;SDS011;23275;48.914;12.566;2022-09-09T14:52:41;0.93;;;0.40;;
37409;SDS011;23275;48.914;12.566;2022-09-09T14:55:07;2.65;;;0.70;;
37409;SDS011;23275;48.914;12.566;2022-09-09T14:57:33;5.57;;;1.15;;
37409;SDS011;23275;48.914;12.566;2022-09-09T15:00:00;3.40;;;0.70;;
37409;SDS011;23275;48.914;12.566;2022-09-09T15:02:27;3.00;;;0.70;;
37409;SDS011;23275;48.914;12.566;2022-09-09T15:04:54;1.77;;;0.73;;
37409;SDS011;23275;48.914;12.566;2022-09-09T15:07:23;4.03;;;0.80;;
37409;SDS011;23275;48.914;12.566;2022-09-09T15:09:49;2.45;;;0.60;;
37409;SDS011;23275;48.914;12.566;2022-09-09T15:12:14;5.28;;;0.98;;
37409;SDS011;23275;48.914;12.566;2022-09-09T15:14:40;3.80;;;0.90;;
37409;SDS011;23275;48.914;12.566;2022-09-09T15:17:06;2.70;;;0.88;;
37409;SDS011;23275;48.914;12.566;2022-09-09T15:19:31;1.48;;;0.60;;
37409;SDS011;23275;48.914;12.566;2022-09-09T15:21:57;5.53;;;1.00;;
37409;SDS011;23275;48.914;12.566;2022-09-09T15:24:24;2.13;;;0.82;;
37409;SDS011;23275;48.914;12.566;2022-09-09T15:26:51;1.90;;;0.90;;
37409;SDS011;23275;48.914;12.566;2022-09-09T15:29:17;6.13;;;0.60;;
37409;SDS011;23275;48.914;12.566;2022-09-09T15:31:43;2.42;;;0.60;;
37409;SDS011;23275;48.914;12.566;2022-09-09T15:34:09;3.38;;;0.85;;
37409;SDS011;23275;48.914;12.566;2022-09-09T15:36:36;4.30;;;0.52;;
37409;SDS011;23275;48.914;12.566;2022-09-09T15:39:04;2.17;;;0.88;;
37409;SDS011;23275;48.914;12.566;2022-09-09T15:41:30;2.85;;;0.75;;
37409;SDS011;23275;48.914;12.566;2022-09-09T15:43:56;5.72;;;0.70;;
37409;SDS011;23275;48.914;12.566;2022-09-09T15:49:02;2.60;;;0.93;;
37409;SDS011;23275;48.914;12.566;2022-09-09T15:51:28;4.72;;;0.80;;
37409;SDS011;23275;48.914;12.566;2022-09-09T15:53:54;1.75;;;0.90;;
37409;SDS011;23275;48.914;12.566;2022-09-09T15:56:21;3.00;;;0.60;;
37409;SDS011;23275;48.914;12.566;2022-09-09T15:58:47;5.80;;;0.98;;
37409;SDS011;23275;48.914;12.566;2022-09-09T16:01:12;2.78;;;0.60;;
37409;SDS011;23275;48.914;12.566;2022-09-09T16:03:39;5.40;;;0.75;;
37409;SDS011;23275;48.914;12.566;2022-09-09T16:06:11;2.42;;;0.60;;
37409;SDS011;23275;48.914;12.566;2022-09-09T16:08:42;2.90;;;0.95;;
37409;SDS011;23275;48.914;12.566;2022-09-09T16:11:13;2.25;;;0.65;;
37409;SDS011;23275;48.914;12.566;2022-09-09T16:13:44;3.70;;;0.80;;
37409;SDS011;23275;48.914;12.566;2022-09-09T16:16:12;4.35;;;1.83;;
37409;SDS011;23275;48.914;12.566;2022-09-09T16:21:23;2.38;;;0.70;;
37409;SDS011;23275;48.914;12.566;2022-09-09T16:23:54;2.55;;;0.60;;
37409;SDS011;23275;48.914;12.566;2022-09-09T16:26:21;2.35;;;0.70;;
37409;SDS011;23275;48.914;12.566;2022-09-09T16:28:47;3.50;;;0.60;;
37409;SDS011;23275;48.914;12.566;2022-09-09T16:31:18;3.03;;;0.80;;
37409;SDS011;23275;48.914;12.566;2022-09-09T16:33:45;1.45;;;0.50;;
37409;SDS011;23275;48.914;12.566;2022-09-09T16:36:13;2.33;;;0.50;;
37409;SDS011;23275;48.914;12.566;2022-09-09T16:38:53;2.38;;;0.60;;
37409;SDS011;23275;48.914;12.566;2022-09-09T16:41:22;1.75;;;0.40;;
37409;SDS011;23275;48.914;12.566;2022-09-09T16:43:55;5.15;;;0.50;;
37409;SDS011;23275;48.914;12.566;2022-09-09T16:46:22;4.38;;;0.55;;
37409;SDS011;23275;48.914;12.566;2022-09-09T16:48:49;2.67;;;0.50;;
37409;SDS011;23275;48.914;12.566;2022-09-09T16:51:25;3.67;;;0.50;;
37409;SDS011;23275;48.914;12.566;2022-09-09T16:53:57;1.85;;;0.60;;
37409;SDS011;23275;48.914;12.566;2022-09-09T16:56:25;1.45;;;0.50;;
37409;SDS011;23275;48.914;12.566;2022-09-09T16:58:54;2.85;;;0.80;;
37409;SDS011;23275;48.914;12.566;2022-09-09T17:01:24;6.03;;;0.95;;
37409;SDS011;23275;48.914;12.566;2022-09-09T17:03:54;1.25;;;0.70;;
37409;SDS011;23275;48.914;12.566;2022-09-09T17:06:25;1.15;;;0.43;;
37409;SDS011;23275;48.914;12.566;2022-09-09T17:08:55;3.20;;;0.60;;
37409;SDS011;23275;48.914;12.566;2022-09-09T17:11:22;1.70;;;0.57;;
37409;SDS011;23275;48.914;12.566;2022-09-09T17:13:49;1.90;;;0.45;;
37409;SDS011;23275;48.914;12.566;2022-09-09T17:16:16;1.02;;;0.43;;
37409;SDS011;23275;48.914;12.566;2022-09-09T17:18:43;5.10;;;0.57;;
37409;SDS011;23275;48.914;12.566;2022-09-09T17:21:14;2.03;;;0.57;;
37409;SDS011;23275;48.914;12.566;2022-09-09T17:23:43;2.03;;;0.50;;
37409;SDS011;23275;48.914;12.566;2022-09-09T17:26:10;1.75;;;0.57;;